sensor_id;sensor_type;location;lat;lon;timestamp;pressure;altitude;pressure_sealevel;temperature;humidity
8697;BME280;4385;48.848;8.924;2023-10-19T00:00:36;95797.91;;;18.80;100.00
8697;BME280;4385;48.848;8.924;2023-10-19T00:03:05;95793.78;;;18.77;100.00
8697;BME280;4385;48.848;8.924;2023-10-19T00:05:32;95790.50;;;18.75;100.00
8697;BME280;4385;48.848;8.924;2023-10-19T00:07:58;95793.94;;;18.74;100.00
8697;BME280;4385;48.848;8.924;2023-10-19T00:10:25;95799.03;;;18.74;100.00
8697;BME280;4385;48.848;8.924;2023-10-19T00:12:54;95794.84;;;18.73;100.00
8697;BME280;4385;48.848;8.924;2023-10-19T00:15:29;95806.75;;;18.73;100.00
8697;BME280;4385;48.848;8.924;2023-10-19T00:17:59;95797.38;;;18.73;100.00
8697;BME280;4385;48.848;8.924;2023-10-19T00:20:38;95794.75;;;18.75;100.00
8697;BME280;4385;48.848;8.924;2023-10-19T00:23:10;95795.59;;;18.75;100.00
8697;BME280;4385;48.848;8.924;2023-10-19T00:25:38;95798.88;;;18.77;100.00
8697;BME280;4385;48.848;8.924;2023-10-19T00:28:06;95799.72;;;18.78;100.00
8697;BME280;4385;48.848;8.924;2023-10-19T00:30:32;95799.63;;;18.79;100.00
8697;BME280;4385;48.848;8.924;2023-10-19T00:33:01;95791.06;;;18.80;100.00
8697;BME280;4385;48.848;8.924;2023-10-19T00:35:30;95789.41;;;18.79;100.00
8697;BME280;4385;48.848;8.924;2023-10-19T00:38:08;95787.72;;;18.80;100.00
8697;BME280;4385;48.848;8.924;2023-10-19T00:40:55;95779.22;;;18.79;100.00
8697;BME280;4385;48.848;8.924;2023-10-19T00:43:46;95762.19;;;18.80;100.00
8697;BME280;4385;48.848;8.924;2023-10-19T00:46:15;95763.00;;;18.80;100.00
8697;BME280;4385;48.848;8.924;2023-10-19T00:48:55;95763.00;;;18.80;100.00
8697;BME280;4385;48.848;8.924;2023-10-19T00:51:51;95751.16;;;18.79;100.00
8697;BME280;4385;48.848;8.924;2023-10-19T00:54:21;95748.69;;;18.78;100.00
8697;BME280;4385;48.848;8.924;2023-10-19T00:56:53;95750.41;;;18.77;100.00
8697;BME280;4385;48.848;8.924;2023-10-19T00:59:21;95754.78;;;18.75;100.00
8697;BME280;4385;48.848;8.924;2023-10-19T01:01:50;95742.91;;;18.74;100.00
8697;BME280;4385;48.848;8.924;2023-10-19T01:04:15;95748.16;;;18.71;100.00
8697;BME280;4385;48.848;8.924;2023-10-19T01:06:56;95746.34;;;18.73;100.00
8697;BME280;4385;48.848;8.924;2023-10-19T01:09:34;95734.53;;;18.72;100.00
8697;BME280;4385;48.848;8.924;2023-10-19T01:12:01;95743.97;;;18.70;100.00
8697;BME280;4385;48.848;8.924;2023-10-19T01:14:36;95739.69;;;18.71;100.00
8697;BME280;4385;48.848;8.924;2023-10-19T01:17:02;95734.69;;;18.69;100.00
8697;BME280;4385;48.848;8.924;2023-10-19T01:19:27;95732.13;;;18.69;100.00
8697;BME280;4385;48.848;8.924;2023-10-19T01:21:53;95727.03;;;18.69;100.00
8697;BME280;4385;48.848;8.924;2023-10-19T01:24:24;95726.94;;;18.71;100.00
8697;BME280;4385;48.848;8.924;2023-10-19T01:27:07;95721.75;;;18.72;100.00
8697;BME280;4385;48.848;8.924;2023-10-19T01:29:36;95711.56;;;18.72;100.00
8697;BME280;4385;48.848;8.924;2023-10-19T01:32:04;95710.66;;;18.73;100.00
8697;BME280;4385;48.848;8.924;2023-10-19T01:34:37;95714.84;;;18.74;100.00
8697;BME280;4385;48.848;8.924;2023-10-19T01:37:02;95704.56;;;18.76;100.00
8697;BME280;4385;48.848;8.924;2023-10-19T01:39:33;95693.47;;;18.77;100.00
8697;BME280;4385;48.848;8.924;2023-10-19T01:42:00;95693.38;;;18.78;100.00
8697;BME280;4385;48.848;8.924;2023-10-19T01:44:26;95692.53;;;18.78;100.00
8697;BME280;4385;48.848;8.924;2023-10-19T01:46:52;95692.47;;;18.79;100.00
8697;BME280;4385;48.848;8.924;2023-10-19T01:49:17;95693.31;;;18.80;100.00
8697;BME280;4385;48.848;8.924;2023-10-19T01:51:53;95682.25;;;18.79;100.00
8697;BME280;4385;48.848;8.924;2023-10-19T01:54:24;95683.97;;;18.79;100.00
8697;BME280;4385;48.848;8.924;2023-10-19T01:56:53;95687.38;;;18.79;100.00
8697;BME280;4385;48.848;8.924;2023-10-19T01:59:26;95687.38;;;18.79;100.00
8697;BME280;4385;48.848;8.924;2023-10-19T02:01:53;95696.66;;;18.80;100.00
8697;BME280;4385;48.848;8.924;2023-10-19T02:04:20;95693.22;;;18.81;100.00
8697;BME280;4385;48.848;8.924;2023-10-19T02:06:47;95681.34;;;18.80;100.00
8697;BME280;4385;48.848;8.924;2023-10-19T02:09:13;95686.44;;;18.80;100.00
8697;BME280;4385;48.848;8.924;2023-10-19T02:11:43;95677.16;;;18.79;100.00
8697;BME280;4385;48.848;8.924;2023-10-19T02:14:11;95671.31;;;18.77;100.00
8697;BME280;4385;48.848;8.924;2023-10-19T02:16:43;95665.41;;;18.77;100.00
8697;BME280;4385;48.848;8.924;2023-10-19T02:19:09;95661.19;;;18.76;100.00
8697;BME280;4385;48.848;8.924;2023-10-19T02:21:35;95656.16;;;18.74;100.00
8697;BME280;4385;48.848;8.924;2023-10-19T02:24:06;95656.16;;;18.74;100.00
8697;BME280;4385;48.848;8.924;2023-10-19T02:26:32;95669.81;;;18.73;100.00
8697;BME280;4385;48.848;8.924;2023-10-19T02:28:58;95656.22;;;18.73;100.00
8697;BME280;4385;48.848;8.924;2023-10-19T02:31:24;95652.88;;;18.72;100.00
8697;BME280;4385;48.848;8.924;2023-10-19T02:33:54;95654.69;;;18.70;100.00
8697;BME280;4385;48.848;8.924;2023-10-19T02:36:30;95656.41;;;18.69;100.00
8697;BME280;4385;48.848;8.924;2023-10-19T02:38:57;95658.13;;;18.69;100.00
8697;BME280;4385;48.848;8.924;2023-10-19T02:41:26;95659.78;;;18.70;100.00
8697;BME280;4385;48.848;8.924;2023-10-19T02:43:55;95651.22;;;18.71;100.00
8697;BME280;4385;48.848;8.924;2023-10-19T02:46:31;95645.22;;;18.72;100.00
8697;BME280;4385;48.848;8.924;2023-10-19T02:49:00;95649.41;;;18.73;100.00
8697;BME280;4385;48.848;8.924;2023-10-19T02:51:26;95637.50;;;18.74;100.00
8697;BME280;4385;48.848;8.924;2023-10-19T02:53:51;95633.09;;;18.76;100.00
8697;BME280;4385;48.848;8.924;2023-10-19T02:56:16;95633.94;;;18.76;100.00
8697;BME280;4385;48.848;8.924;2023-10-19T02:58:43;95640.59;;;18.79;100.00
8697;BME280;4385;48.848;8.924;2023-10-19T03:01:16;95626.13;;;18.79;100.00
8697;BME280;4385;48.848;8.924;2023-10-19T03:03:46;95626.13;;;18.79;100.00
8697;BME280;4385;48.848;8.924;2023-10-19T03:06:11;95625.22;;;18.80;100.00
8697;BME280;4385;48.848;8.924;2023-10-19T03:08:37;95622.66;;;18.80;100.00
8697;BME280;4385;48.848;8.924;2023-10-19T03:11:02;95630.31;;;18.80;100.00
8697;BME280;4385;48.848;8.924;2023-10-19T03:13:32;95627.75;;;18.80;100.00
8697;BME280;4385;48.848;8.924;2023-10-19T03:16:01;95626.88;;;18.81;100.00
8697;BME280;4385;48.848;8.924;2023-10-19T03:18:31;95623.56;;;18.79;100.00
8697;BME280;4385;48.848;8.924;2023-10-19T03:20:56;95622.66;;;18.80;100.00
8697;BME280;4385;48.848;8.924;2023-10-19T03:23:22;95627.75;;;18.80;100.00
8697;BME280;4385;48.848;8.924;2023-10-19T03:25:53;95622.75;;;18.79;100.00
8697;BME280;4385;48.848;8.924;2023-10-19T03:28:37;95621.94;;;18.78;100.00
8697;BME280;4385;48.848;8.924;2023-10-19T03:31:03;95618.56;;;18.78;100.00
8697;BME280;4385;48.848;8.924;2023-10-19T03:33:29;95616.09;;;18.76;100.00
8697;BME280;4385;48.848;8.924;2023-10-19T03:35:54;95611.97;;;18.74;100.00
8697;BME280;4385;48.848;8.924;2023-10-19T03:38:20;95606.03;;;18.73;100.00
8697;BME280;4385;48.848;8.924;2023-10-19T03:40:48;95611.22;;;18.72;100.00
8697;BME280;4385;48.848;8.924;2023-10-19T03:43:17;95605.28;;;18.71;100.00
8697;BME280;4385;48.848;8.924;2023-10-19T03:45:46;95605.28;;;18.71;100.00
8697;BME280;4385;48.848;8.924;2023-10-19T03:48:18;95596.75;;;18.72;100.00
8697;BME280;4385;48.848;8.924;2023-10-19T03:50:59;95593.44;;;18.70;100.00
8697;BME280;4385;48.848;8.924;2023-10-19T03:53:28;95597.72;;;18.69;100.00
8697;BME280;4385;48.848;8.924;2023-10-19T03:55:53;95591.81;;;18.69;100.00
8697;BME280;4385;48.848;8.924;2023-10-19T03:58:20;95591.81;;;18.69;100.00
8697;BME280;4385;48.848;8.924;2023-10-19T04:00:47;95582.50;;;18.68;100.00
8697;BME280;4385;48.848;8.924;2023-10-19T04:03:14;95585.03;;;18.68;100.00
8697;BME280;4385;48.848;8.924;2023-10-19T04:05:40;95582.50;;;18.68;100.00
8697;BME280;4385;48.848;8.924;2023-10-19T04:08:07;95585.03;;;18.68;100.00
8697;BME280;4385;48.848;8.924;2023-10-19T04:10:39;95573.22;;;18.67;100.00
8697;BME280;4385;48.848;8.924;2023-10-19T04:13:05;95575.75;;;18.67;100.00
8697;BME280;4385;48.848;8.924;2023-10-19T04:15:34;95564.72;;;18.66;100.00
8697;BME280;4385;48.848;8.924;2023-10-19T04:18:01;95566.47;;;18.66;100.00
8697;BME280;4385;48.848;8.924;2023-10-19T04:20:27;95565.72;;;18.64;100.00
8697;BME280;4385;48.848;8.924;2023-10-19T04:23:07;95568.28;;;18.64;100.00
8697;BME280;4385;48.848;8.924;2023-10-19T04:25:36;95556.34;;;18.64;100.00
8697;BME280;4385;48.848;8.924;2023-10-19T04:28:01;95560.63;;;18.64;100.00
8697;BME280;4385;48.848;8.924;2023-10-19T04:30:28;95556.44;;;18.63;100.00
8697;BME280;4385;48.848;8.924;2023-10-19T04:32:53;95556.44;;;18.63;100.00
8697;BME280;4385;48.848;8.924;2023-10-19T04:35:22;95547.88;;;18.64;100.00
8697;BME280;4385;48.848;8.924;2023-10-19T04:37:51;95547.88;;;18.64;100.00
8697;BME280;4385;48.848;8.924;2023-10-19T04:40:18;95547.03;;;18.63;100.00
8697;BME280;4385;48.848;8.924;2023-10-19T04:42:43;95544.56;;;18.62;100.00
8697;BME280;4385;48.848;8.924;2023-10-19T04:45:09;95546.94;;;18.65;100.00
8697;BME280;4385;48.848;8.924;2023-10-19T04:47:37;95560.44;;;18.67;100.00
8697;BME280;4385;48.848;8.924;2023-10-19T04:50:03;95552.81;;;18.67;100.00
8697;BME280;4385;48.848;8.924;2023-10-19T04:52:29;95551.00;;;18.69;100.00
8697;BME280;4385;48.848;8.924;2023-10-19T04:54:55;95536.41;;;18.71;100.00
8697;BME280;4385;48.848;8.924;2023-10-19T04:57:20;95546.38;;;18.76;100.00
8697;BME280;4385;48.848;8.924;2023-10-19T04:59:46;95547.03;;;18.79;100.00
8697;BME280;4385;48.848;8.924;2023-10-19T05:02:11;95546.88;;;18.82;100.00
8697;BME280;4385;48.848;8.924;2023-10-19T05:04:36;95543.31;;;18.85;100.00
8697;BME280;4385;48.848;8.924;2023-10-19T05:07:02;95538.97;;;18.87;100.00
8697;BME280;4385;48.848;8.924;2023-10-19T05:09:29;95542.25;;;18.89;100.00
8697;BME280;4385;48.848;8.924;2023-10-19T05:11:54;95536.25;;;18.90;100.00
8697;BME280;4385;48.848;8.924;2023-10-19T05:14:20;95546.34;;;18.92;100.00
8697;BME280;4385;48.848;8.924;2023-10-19T05:16:45;95543.81;;;18.92;100.00
8697;BME280;4385;48.848;8.924;2023-10-19T05:19:10;95537.78;;;18.93;100.00
8697;BME280;4385;48.848;8.924;2023-10-19T05:21:36;95537.00;;;18.92;100.00
8697;BME280;4385;48.848;8.924;2023-10-19T05:24:01;95540.34;;;18.93;100.00
8697;BME280;4385;48.848;8.924;2023-10-19T05:26:27;95546.28;;;18.93;100.00
8697;BME280;4385;48.848;8.924;2023-10-19T05:28:52;95542.91;;;18.93;100.00
8697;BME280;4385;48.848;8.924;2023-10-19T05:31:18;95535.25;;;18.93;100.00
8697;BME280;4385;48.848;8.924;2023-10-19T05:33:43;95537.00;;;18.92;100.00
8697;BME280;4385;48.848;8.924;2023-10-19T05:36:08;95539.63;;;18.91;100.00
8697;BME280;4385;48.848;8.924;2023-10-19T05:38:34;95549.84;;;18.91;100.00
8697;BME280;4385;48.848;8.924;2023-10-19T05:40:59;95543.06;;;18.90;100.00
8697;BME280;4385;48.848;8.924;2023-10-19T05:43:25;95537.97;;;18.90;100.00
8697;BME280;4385;48.848;8.924;2023-10-19T05:45:51;95538.88;;;18.89;100.00
8697;BME280;4385;48.848;8.924;2023-10-19T05:48:19;95529.59;;;18.88;100.00
8697;BME280;4385;48.848;8.924;2023-10-19T05:50:45;95531.31;;;18.87;100.00
8697;BME280;4385;48.848;8.924;2023-10-19T05:53:10;95538.97;;;18.87;100.00
8697;BME280;4385;48.848;8.924;2023-10-19T05:55:35;95539.88;;;18.86;100.00
8697;BME280;4385;48.848;8.924;2023-10-19T05:58:02;95544.16;;;18.86;100.00
8697;BME280;4385;48.848;8.924;2023-10-19T06:00:30;95541.69;;;18.84;100.00
8697;BME280;4385;48.848;8.924;2023-10-19T06:02:56;95551.97;;;18.82;100.00
8697;BME280;4385;48.848;8.924;2023-10-19T06:05:23;95548.66;;;18.80;100.00
8697;BME280;4385;48.848;8.924;2023-10-19T06:07:49;95550.34;;;18.81;100.00
8697;BME280;4385;48.848;8.924;2023-10-19T06:10:18;95553.59;;;18.84;100.00
8697;BME280;4385;48.848;8.924;2023-10-19T06:12:45;95558.72;;;18.84;100.00
8697;BME280;4385;48.848;8.924;2023-10-19T06:15:11;95551.97;;;18.82;100.00
8697;BME280;4385;48.848;8.924;2023-10-19T06:17:38;95557.91;;;18.83;100.00
8697;BME280;4385;48.848;8.924;2023-10-19T06:20:06;95556.25;;;18.82;100.00
8697;BME280;4385;48.848;8.924;2023-10-19T06:22:34;95552.88;;;18.81;100.00
8697;BME280;4385;48.848;8.924;2023-10-19T06:25:00;95554.53;;;18.82;100.00
8697;BME280;4385;48.848;8.924;2023-10-19T06:27:25;95551.97;;;18.82;100.00
8697;BME280;4385;48.848;8.924;2023-10-19T06:29:50;95557.00;;;18.84;100.00
8697;BME280;4385;48.848;8.924;2023-10-19T06:32:16;95551.81;;;18.86;100.00
8697;BME280;4385;48.848;8.924;2023-10-19T06:34:42;95549.09;;;18.89;100.00
8697;BME280;4385;48.848;8.924;2023-10-19T06:37:07;95546.34;;;18.92;100.00
8697;BME280;4385;48.848;8.924;2023-10-19T06:39:35;95550.47;;;18.94;100.00
8697;BME280;4385;48.848;8.924;2023-10-19T06:42:06;95548.50;;;19.00;100.00
8697;BME280;4385;48.848;8.924;2023-10-19T06:44:34;95544.69;;;19.07;100.00
8697;BME280;4385;48.848;8.924;2023-10-19T06:46:59;95543.56;;;19.13;100.00
8697;BME280;4385;48.848;8.924;2023-10-19T06:49:25;95544.19;;;19.16;100.00
8697;BME280;4385;48.848;8.924;2023-10-19T06:51:50;95545.69;;;19.21;100.00
8697;BME280;4385;48.848;8.924;2023-10-19T06:54:15;95542.13;;;19.23;100.00
8697;BME280;4385;48.848;8.924;2023-10-19T06:56:41;95539.41;;;19.26;100.00
8697;BME280;4385;48.848;8.924;2023-10-19T06:59:06;95538.41;;;19.29;100.00
8697;BME280;4385;48.848;8.924;2023-10-19T07:01:32;95545.00;;;19.33;100.00
8697;BME280;4385;48.848;8.924;2023-10-19T07:03:57;95541.44;;;19.36;100.00
8697;BME280;4385;48.848;8.924;2023-10-19T07:06:23;95542.19;;;19.38;100.00
8697;BME280;4385;48.848;8.924;2023-10-19T07:08:49;95536.06;;;19.40;100.00
8697;BME280;4385;48.848;8.924;2023-10-19T07:11:14;95539.38;;;19.42;100.00
8697;BME280;4385;48.848;8.924;2023-10-19T07:13:39;95541.84;;;19.44;100.00
8697;BME280;4385;48.848;8.924;2023-10-19T07:16:05;95544.28;;;19.46;100.00
8697;BME280;4385;48.848;8.924;2023-10-19T07:18:30;95538.19;;;19.48;100.00
8697;BME280;4385;48.848;8.924;2023-10-19T07:20:56;95538.19;;;19.48;100.00
8697;BME280;4385;48.848;8.924;2023-10-19T07:23:28;95538.94;;;19.50;100.00
8697;BME280;4385;48.848;8.924;2023-10-19T07:25:53;95538.84;;;19.52;100.00
8697;BME280;4385;48.848;8.924;2023-10-19T07:28:19;95537.09;;;19.52;100.00
8697;BME280;4385;48.848;8.924;2023-10-19T07:30:45;95536.19;;;19.53;100.00
8697;BME280;4385;48.848;8.924;2023-10-19T07:33:14;95532.81;;;19.53;100.00
8697;BME280;4385;48.848;8.924;2023-10-19T07:35:44;95538.56;;;19.56;100.00
8697;BME280;4385;48.848;8.924;2023-10-19T07:38:13;95535.19;;;19.56;100.00
8697;BME280;4385;48.848;8.924;2023-10-19T07:40:38;95531.72;;;19.57;100.00
8697;BME280;4385;48.848;8.924;2023-10-19T07:43:04;95535.00;;;19.59;100.00
8697;BME280;4385;48.848;8.924;2023-10-19T07:45:30;95528.19;;;19.60;100.00
8697;BME280;4385;48.848;8.924;2023-10-19T07:47:59;95534.91;;;19.61;100.00
8697;BME280;4385;48.848;8.924;2023-10-19T07:50:34;95533.19;;;19.61;100.00
8697;BME280;4385;48.848;8.924;2023-10-19T07:53:00;95527.25;;;19.61;100.00
8697;BME280;4385;48.848;8.924;2023-10-19T07:55:25;95522.06;;;19.62;100.00
8697;BME280;4385;48.848;8.924;2023-10-19T07:57:51;95529.53;;;19.65;100.00
8697;BME280;4385;48.848;8.924;2023-10-19T08:00:18;95524.25;;;19.68;100.00
8697;BME280;4385;48.848;8.924;2023-10-19T08:02:44;95518.97;;;19.72;100.00
8697;BME280;4385;48.848;8.924;2023-10-19T08:05:16;95522.25;;;19.74;100.00
8697;BME280;4385;48.848;8.924;2023-10-19T08:07:45;95519.63;;;19.75;100.00
8697;BME280;4385;48.848;8.924;2023-10-19T08:10:13;95512.66;;;19.77;100.00
8697;BME280;4385;48.848;8.924;2023-10-19T08:12:39;95521.91;;;19.80;100.00
8697;BME280;4385;48.848;8.924;2023-10-19T08:15:09;95515.59;;;19.86;100.00
8697;BME280;4385;48.848;8.924;2023-10-19T08:17:39;95519.06;;;19.85;100.00
8697;BME280;4385;48.848;8.924;2023-10-19T08:20:09;95519.78;;;19.87;100.00
8697;BME280;4385;48.848;8.924;2023-10-19T08:22:44;95517.22;;;19.87;100.00
8697;BME280;4385;48.848;8.924;2023-10-19T08:25:12;95526.47;;;19.89;100.00
8697;BME280;4385;48.848;8.924;2023-10-19T08:27:49;95529.81;;;19.90;100.00
8697;BME280;4385;48.848;8.924;2023-10-19T08:30:19;95521.25;;;19.91;100.00
8697;BME280;4385;48.848;8.924;2023-10-19T08:32:44;95517.88;;;19.90;100.00
8697;BME280;4385;48.848;8.924;2023-10-19T08:35:13;95521.97;;;19.93;100.00
8697;BME280;4385;48.848;8.924;2023-10-19T08:37:39;95510.94;;;19.92;100.00
8697;BME280;4385;48.848;8.924;2023-10-19T08:40:10;95510.13;;;19.92;100.00
8697;BME280;4385;48.848;8.924;2023-10-19T08:42:41;95505.75;;;19.94;100.00
8697;BME280;4385;48.848;8.924;2023-10-19T08:45:07;95497.25;;;19.93;100.00
8697;BME280;4385;48.848;8.924;2023-10-19T08:47:35;95493.84;;;19.93;100.00
8697;BME280;4385;48.848;8.924;2023-10-19T08:50:02;95486.19;;;19.93;100.00
8697;BME280;4385;48.848;8.924;2023-10-19T08:52:28;95495.63;;;19.92;100.00
8697;BME280;4385;48.848;8.924;2023-10-19T08:54:53;95498.88;;;19.94;100.00
8697;BME280;4385;48.848;8.924;2023-10-19T08:57:19;95494.59;;;19.95;100.00
8697;BME280;4385;48.848;8.924;2023-10-19T08:59:45;95495.34;;;19.97;100.00
8697;BME280;4385;48.848;8.924;2023-10-19T09:02:12;95497.06;;;19.97;100.00
8697;BME280;4385;48.848;8.924;2023-10-19T09:04:41;95488.38;;;19.99;100.00
8697;BME280;4385;48.848;8.924;2023-10-19T09:07:07;95492.59;;;20.00;100.00
8697;BME280;4385;48.848;8.924;2023-10-19T09:09:35;95489.13;;;20.01;100.00
8697;BME280;4385;48.848;8.924;2023-10-19T09:12:06;95492.59;;;20.00;100.00
8697;BME280;4385;48.848;8.924;2023-10-19T09:14:34;95484.09;;;20.00;100.00
8697;BME280;4385;48.848;8.924;2023-10-19T09:17:02;95488.22;;;20.02;100.00
8697;BME280;4385;48.848;8.924;2023-10-19T09:19:36;95480.47;;;20.04;100.00
8697;BME280;4385;48.848;8.924;2023-10-19T09:22:03;95479.56;;;20.05;100.00
8697;BME280;4385;48.848;8.924;2023-10-19T09:24:33;95476.09;;;20.06;100.00
8697;BME280;4385;48.848;8.924;2023-10-19T09:26:59;95472.69;;;20.05;100.00
8697;BME280;4385;48.848;8.924;2023-10-19T09:29:24;95475.25;;;20.05;100.00
8697;BME280;4385;48.848;8.924;2023-10-19T09:31:51;95468.50;;;20.04;100.00
8697;BME280;4385;48.848;8.924;2023-10-19T09:34:17;95475.44;;;20.02;100.00
8697;BME280;4385;48.848;8.924;2023-10-19T09:36:44;95478.88;;;20.01;100.00
8697;BME280;4385;48.848;8.924;2023-10-19T09:39:09;95473.03;;;19.99;100.00
8697;BME280;4385;48.848;8.924;2023-10-19T09:41:37;95472.34;;;19.97;100.00
8697;BME280;4385;48.848;8.924;2023-10-19T09:44:06;95469.03;;;19.95;100.00
8697;BME280;4385;48.848;8.924;2023-10-19T09:46:37;95474.25;;;19.93;100.00
8697;BME280;4385;48.848;8.924;2023-10-19T09:49:04;95472.69;;;19.91;100.00
8697;BME280;4385;48.848;8.924;2023-10-19T09:51:29;95471.97;;;19.89;100.00
8697;BME280;4385;48.848;8.924;2023-10-19T09:56:35;95468.84;;;19.84;100.00
8697;BME280;4385;48.848;8.924;2023-10-19T09:59:16;95464.66;;;19.83;100.00
8697;BME280;4385;48.848;8.924;2023-10-19T10:02:09;95469.03;;;19.80;100.00
8697;BME280;4385;48.848;8.924;2023-10-19T10:04:43;95465.78;;;19.78;100.00
8697;BME280;4385;48.848;8.924;2023-10-19T10:07:13;95453.88;;;19.77;100.00
8697;BME280;4385;48.848;8.924;2023-10-19T10:09:40;95459.91;;;19.76;100.00
8697;BME280;4385;48.848;8.924;2023-10-19T10:12:22;95463.41;;;19.75;100.00
8697;BME280;4385;48.848;8.924;2023-10-19T10:15:03;95460.09;;;19.73;100.00
8697;BME280;4385;48.848;8.924;2023-10-19T10:17:36;95460.28;;;19.70;100.00
8697;BME280;4385;48.848;8.924;2023-10-19T10:22:40;95460.56;;;19.65;100.00
8697;BME280;4385;48.848;8.924;2023-10-19T10:25:25;95464.84;;;19.65;100.00
8697;BME280;4385;48.848;8.924;2023-10-19T10:27:51;95449.50;;;19.65;100.00
8697;BME280;4385;48.848;8.924;2023-10-19T10:30:17;95458.09;;;19.64;100.00
8697;BME280;4385;48.848;8.924;2023-10-19T10:32:53;95453.72;;;19.66;100.00
8697;BME280;4385;48.848;8.924;2023-10-19T10:38:07;95474.16;;;19.66;100.00
8697;BME280;4385;48.848;8.924;2023-10-19T10:40:44;95473.25;;;19.67;100.00
8697;BME280;4385;48.848;8.924;2023-10-19T10:43:09;95473.16;;;19.68;100.00
8697;BME280;4385;48.848;8.924;2023-10-19T10:45:36;95475.63;;;19.70;100.00
8697;BME280;4385;48.848;8.924;2023-10-19T10:48:01;95466.31;;;19.69;100.00
8697;BME280;4385;48.848;8.924;2023-10-19T10:50:27;95467.94;;;19.70;100.00
8697;BME280;4385;48.848;8.924;2023-10-19T10:52:53;95475.63;;;19.70;100.00
8697;BME280;4385;48.848;8.924;2023-10-19T10:55:23;95475.63;;;19.70;100.00
8697;BME280;4385;48.848;8.924;2023-10-19T10:57:50;95473.91;;;19.71;100.00
8697;BME280;4385;48.848;8.924;2023-10-19T11:00:16;95473.97;;;19.69;100.00
8697;BME280;4385;48.848;8.924;2023-10-19T11:02:44;95470.50;;;19.70;100.00
8697;BME280;4385;48.848;8.924;2023-10-19T11:05:11;95473.97;;;19.69;100.00
8697;BME280;4385;48.848;8.924;2023-10-19T11:07:38;95466.50;;;19.66;100.00
8697;BME280;4385;48.848;8.924;2023-10-19T11:10:04;95464.75;;;19.66;100.00
8697;BME280;4385;48.848;8.924;2023-10-19T11:12:29;95464.84;;;19.65;100.00
8697;BME280;4385;48.848;8.924;2023-10-19T11:14:56;95469.25;;;19.63;100.00
8697;BME280;4385;48.848;8.924;2023-10-19T11:17:24;95474.34;;;19.63;100.00
8697;BME280;4385;48.848;8.924;2023-10-19T11:19:54;95463.31;;;19.62;100.00
8697;BME280;4385;48.848;8.924;2023-10-19T11:22:21;95449.78;;;19.60;100.00
8697;BME280;4385;48.848;8.924;2023-10-19T11:24:47;95446.44;;;19.60;100.00
8697;BME280;4385;48.848;8.924;2023-10-19T11:27:12;95454.91;;;19.60;100.00
8697;BME280;4385;48.848;8.924;2023-10-19T11:29:37;95453.16;;;19.61;100.00
8697;BME280;4385;48.848;8.924;2023-10-19T11:32:03;95443.03;;;19.59;100.00
8697;BME280;4385;48.848;8.924;2023-10-19T11:34:29;95443.88;;;19.60;100.00
8697;BME280;4385;48.848;8.924;2023-10-19T11:36:58;95441.31;;;19.60;100.00
8697;BME280;4385;48.848;8.924;2023-10-19T11:39:25;95448.16;;;19.59;100.00
8697;BME280;4385;48.848;8.924;2023-10-19T11:41:51;95443.88;;;19.60;100.00
8697;BME280;4385;48.848;8.924;2023-10-19T11:44:16;95424.34;;;19.59;100.00
8697;BME280;4385;48.848;8.924;2023-10-19T11:46:41;95424.25;;;19.60;100.00
8697;BME280;4385;48.848;8.924;2023-10-19T11:49:07;95408.91;;;19.60;100.00
8697;BME280;4385;48.848;8.924;2023-10-19T11:51:34;95395.25;;;19.61;100.00
8697;BME280;4385;48.848;8.924;2023-10-19T11:53:59;95391.84;;;19.61;100.00
8697;BME280;4385;48.848;8.924;2023-10-19T11:56:24;95384.19;;;19.61;100.00
8697;BME280;4385;48.848;8.924;2023-10-19T11:58:50;95382.47;;;19.61;100.00
8697;BME280;4385;48.848;8.924;2023-10-19T12:01:15;95375.72;;;19.60;100.00
8697;BME280;4385;48.848;8.924;2023-10-19T12:03:44;95374.81;;;19.61;100.00
8697;BME280;4385;48.848;8.924;2023-10-19T12:06:13;95382.56;;;19.60;100.00
8697;BME280;4385;48.848;8.924;2023-10-19T12:08:44;95377.47;;;19.60;100.00
8697;BME280;4385;48.848;8.924;2023-10-19T12:11:09;95361.31;;;19.59;100.00
8697;BME280;4385;48.848;8.924;2023-10-19T12:13:42;95365.56;;;19.59;100.00
8697;BME280;4385;48.848;8.924;2023-10-19T12:16:12;95359.66;;;19.58;100.00
8697;BME280;4385;48.848;8.924;2023-10-19T12:18:44;95358.84;;;19.58;100.00
8697;BME280;4385;48.848;8.924;2023-10-19T12:21:10;95359.56;;;19.60;100.00
8697;BME280;4385;48.848;8.924;2023-10-19T12:23:39;95353.53;;;19.61;100.00
8697;BME280;4385;48.848;8.924;2023-10-19T12:26:05;95353.53;;;19.61;100.00
8697;BME280;4385;48.848;8.924;2023-10-19T12:28:39;95359.56;;;19.60;100.00
8697;BME280;4385;48.848;8.924;2023-10-19T12:31:06;95363.75;;;19.61;100.00
8697;BME280;4385;48.848;8.924;2023-10-19T12:33:37;95376.44;;;19.62;100.00
8697;BME280;4385;48.848;8.924;2023-10-19T12:36:04;95384.94;;;19.63;100.00
8697;BME280;4385;48.848;8.924;2023-10-19T12:38:50;95383.38;;;19.60;100.00
8697;BME280;4385;48.848;8.924;2023-10-19T12:41:16;95385.13;;;19.60;100.00
8697;BME280;4385;48.848;8.924;2023-10-19T12:43:42;95383.47;;;19.59;100.00
8697;BME280;4385;48.848;8.924;2023-10-19T12:46:07;95386.00;;;19.59;100.00
8697;BME280;4385;48.848;8.924;2023-10-19T12:48:37;95377.66;;;19.56;100.00
8697;BME280;4385;48.848;8.924;2023-10-19T12:51:02;95382.00;;;19.54;100.00
8697;BME280;4385;48.848;8.924;2023-10-19T12:53:29;95372.72;;;19.53;100.00
8697;BME280;4385;48.848;8.924;2023-10-19T12:55:54;95382.94;;;19.53;100.00
8697;BME280;4385;48.848;8.924;2023-10-19T12:58:19;95380.38;;;19.53;100.00
8697;BME280;4385;48.848;8.924;2023-10-19T13:00:46;95382.00;;;19.54;100.00
8697;BME280;4385;48.848;8.924;2023-10-19T13:03:13;95375.97;;;19.55;100.00
8697;BME280;4385;48.848;8.924;2023-10-19T13:05:40;95377.66;;;19.56;100.00
8697;BME280;4385;48.848;8.924;2023-10-19T13:08:07;95377.47;;;19.60;100.00
8697;BME280;4385;48.848;8.924;2023-10-19T13:10:33;95376.53;;;19.61;100.00
8697;BME280;4385;48.848;8.924;2023-10-19T13:13:01;95369.69;;;19.61;100.00
8697;BME280;4385;48.848;8.924;2023-10-19T13:15:34;95372.16;;;19.63;100.00
8697;BME280;4385;48.848;8.924;2023-10-19T13:18:04;95367.84;;;19.63;100.00
8697;BME280;4385;48.848;8.924;2023-10-19T13:20:31;95361.94;;;19.63;100.00
8697;BME280;4385;48.848;8.924;2023-10-19T13:23:01;95358.47;;;19.64;100.00